Time;durP1;ratioP1;P1;durP2;ratioP2;P2;SDS_P1;SDS_P2;PMS_P1;PMS_P2;Temp;Humidity;BMP_temperature;BMP_pressure;BME280_temperature;BME280_humidity;BME280_pressure;Samples;Min_cycle;Max_cycle;Signal;HPM_P1;HPM_P2
2021/06/17 00:00:32;;;;;;;5.82;3.63;;;16.90;99.90;;;;;;4964193;28;20046;-93
2021/06/17 00:02:59;;;;;;;5.90;4.13;;;16.90;99.90;;;;;;4964544;28;20030;-94
2021/06/17 00:05:28;;;;;;;5.95;4.03;;;16.90;99.90;;;;;;4966024;28;20023;-94
2021/06/17 00:07:54;;;;;;;6.75;4.63;;;16.90;99.90;;;;;;4962469;28;20077;-93
2021/06/17 00:10:25;;;;;;;4.93;3.70;;;16.90;99.90;;;;;;4962640;28;20035;-93
2021/06/17 00:12:50;;;;;;;3.97;3.58;;;16.90;99.90;;;;;;4961959;28;20027;-93
2021/06/17 00:15:17;;;;;;;6.00;3.70;;;16.90;99.90;;;;;;4961910;28;20031;-93
2021/06/17 00:17:44;;;;;;;7.35;3.50;;;16.90;99.90;;;;;;4980741;28;20033;-93
2021/06/17 00:20:10;;;;;;;3.83;3.13;;;16.90;99.90;;;;;;4963695;28;20018;-94
2021/06/17 00:22:36;;;;;;;3.80;3.08;;;16.90;99.90;;;;;;4962891;28;20030;-92
2021/06/17 00:25:04;;;;;;;4.13;3.10;;;16.80;99.90;;;;;;4980516;28;20031;-94
2021/06/17 00:27:29;;;;;;;3.45;2.78;;;16.80;99.90;;;;;;4962913;28;20035;-94
2021/06/17 00:29:55;;;;;;;2.78;2.20;;;16.70;99.90;;;;;;4980183;28;20050;-95
2021/06/17 00:32:21;;;;;;;2.72;2.40;;;16.70;99.90;;;;;;4963095;28;20113;-94
2021/06/17 00:34:46;;;;;;;6.25;2.50;;;16.60;99.90;;;;;;4962426;28;20031;-94
2021/06/17 00:37:13;;;;;;;3.47;2.35;;;16.60;99.90;;;;;;4962276;28;20049;-94
2021/06/17 00:39:40;;;;;;;2.00;1.80;;;16.50;99.90;;;;;;4962185;28;20074;-95
2021/06/17 00:42:07;;;;;;;2.95;1.92;;;16.50;99.90;;;;;;4959922;28;20042;-94
2021/06/17 00:44:33;;;;;;;1.70;1.60;;;16.50;99.90;;;;;;4979595;28;20045;-95
2021/06/17 00:46:59;;;;;;;2.78;1.20;;;16.40;99.90;;;;;;4962741;28;20034;-93
2021/06/17 00:49:24;;;;;;;2.00;1.00;;;16.40;99.90;;;;;;4961086;28;20022;-93
2021/06/17 00:51:50;;;;;;;2.72;1.00;;;16.30;99.90;;;;;;4962060;28;20468;-94
2021/06/17 00:54:31;;;;;;;0.88;0.88;;;16.30;99.90;;;;;;4962406;28;20484;-95
2021/06/17 00:57:08;;;;;;;1.52;0.93;;;16.30;99.90;;;;;;4956788;28;20027;-94
2021/06/17 00:59:35;;;;;;;1.63;0.70;;;16.30;99.90;;;;;;4976981;28;20026;-93
2021/06/17 01:02:00;;;;;;;2.50;0.93;;;16.30;99.90;;;;;;4962020;28;20066;-92
2021/06/17 01:04:27;;;;;;;1.00;0.90;;;16.30;99.90;;;;;;4961999;28;20388;-92
2021/06/17 01:06:54;;;;;;;0.50;0.50;;;16.30;99.90;;;;;;4960834;28;20023;-92
2021/06/17 01:09:26;;;;;;;1.70;0.70;;;16.20;99.90;;;;;;4962070;28;20023;-94
2021/06/17 01:12:12;;;;;;;2.05;0.80;;;16.20;99.90;;;;;;4962185;28;20026;-92
2021/06/17 01:14:47;;;;;;;1.48;0.60;;;16.20;99.90;;;;;;4976732;28;20031;-92
2021/06/17 01:17:16;;;;;;;2.55;0.77;;;16.10;99.90;;;;;;4974445;28;20027;-93
2021/06/17 01:20:04;;;;;;;1.15;0.70;;;16.10;99.90;;;;;;4971055;28;20069;-94
2021/06/17 01:22:45;;;;;;;0.95;0.60;;;16.10;99.90;;;;;;4964314;28;20054;-92
2021/06/17 01:25:36;;;;;;;2.30;0.70;;;16.10;99.90;;;;;;4959703;28;20026;-92
2021/06/17 01:28:02;;;;;;;1.42;0.60;;;16.10;99.90;;;;;;4958283;28;20027;-93
2021/06/17 01:30:30;;;;;;;0.90;0.52;;;16.10;99.90;;;;;;4979108;28;20034;-93
2021/06/17 01:33:01;;;;;;;1.20;0.80;;;16.10;99.90;;;;;;4978880;28;20054;-92
2021/06/17 01:35:31;;;;;;;1.58;0.73;;;16.00;99.90;;;;;;4958894;28;20053;-92
2021/06/17 01:38:00;;;;;;;1.35;0.68;;;16.00;99.90;;;;;;4960919;28;20050;-92
2021/06/17 01:40:29;;;;;;;1.60;0.70;;;16.00;99.90;;;;;;4958850;28;20184;-92
2021/06/17 01:42:58;;;;;;;3.28;0.70;;;16.00;99.90;;;;;;4977829;28;20038;-93
2021/06/17 01:45:25;;;;;;;2.28;0.70;;;16.00;99.90;;;;;;4960808;28;20044;-93
2021/06/17 01:47:53;;;;;;;1.15;0.80;;;16.00;99.90;;;;;;4960393;28;20054;-93
2021/06/17 01:50:22;;;;;;;2.38;0.73;;;16.00;99.90;;;;;;4977530;28;20029;-92
2021/06/17 01:52:52;;;;;;;3.35;1.30;;;15.90;99.90;;;;;;4961491;28;20027;-92
2021/06/17 01:55:18;;;;;;;1.75;0.70;;;15.90;99.90;;;;;;4961723;28;20061;-92
2021/06/17 01:57:45;;;;;;;4.38;0.80;;;15.90;99.90;;;;;;4978856;28;20023;-93
2021/06/17 02:00:12;;;;;;;2.42;0.95;;;15.90;99.90;;;;;;4961511;28;20023;-93
2021/06/17 02:02:39;;;;;;;1.95;0.80;;;15.90;99.90;;;;;;4961037;28;20030;-90
2021/06/17 02:05:06;;;;;;;1.58;0.80;;;15.90;99.90;;;;;;4961328;28;20035;-93
2021/06/17 02:07:33;;;;;;;2.65;0.60;;;15.90;99.90;;;;;;4961515;28;20050;-94
2021/06/17 02:10:00;;;;;;;0.88;0.60;;;15.90;99.90;;;;;;4961689;28;20027;-93
2021/06/17 02:12:25;;;;;;;0.88;0.52;;;15.90;99.90;;;;;;4961392;28;20050;-93
2021/06/17 02:14:52;;;;;;;1.83;0.80;;;15.90;99.90;;;;;;4978965;28;20058;-93
2021/06/17 02:17:20;;;;;;;1.38;0.47;;;15.90;99.90;;;;;;4961633;28;20089;-93
2021/06/17 02:19:49;;;;;;;0.63;0.50;;;15.90;99.90;;;;;;4979149;28;20046;-93
2021/06/17 02:22:16;;;;;;;1.95;0.60;;;15.80;99.90;;;;;;4962043;28;20034;-93
2021/06/17 02:24:46;;;;;;;2.50;0.80;;;15.80;99.90;;;;;;4961685;28;20037;-93
2021/06/17 02:27:17;;;;;;;1.48;1.08;;;15.80;99.90;;;;;;4961019;28;20034;-93
2021/06/17 02:29:45;;;;;;;3.38;0.73;;;15.80;99.90;;;;;;4961088;28;20018;-92
2021/06/17 02:32:17;;;;;;;2.58;0.60;;;15.80;99.90;;;;;;4961774;28;20023;-92
2021/06/17 02:34:48;;;;;;;1.05;0.57;;;15.80;99.90;;;;;;4985881;28;20033;-93
2021/06/17 02:37:17;;;;;;;;;;;15.80;99.90;;;;;;4985132;28;20047;-92
2021/06/17 02:39:47;;;;;;;1.50;0.68;;;15.80;99.90;;;;;;4961601;28;19922;-92
2021/06/17 02:42:16;;;;;;;2.97;0.80;;;15.80;99.90;;;;;;4961492;28;20035;-92
2021/06/17 02:44:43;;;;;;;1.50;0.65;;;15.80;99.90;;;;;;4962104;28;20274;-94
2021/06/17 02:47:11;;;;;;;1.95;0.60;;;15.80;99.90;;;;;;4962200;28;20488;-93
2021/06/17 02:49:41;;;;;;;3.53;0.70;;;15.90;99.90;;;;;;4962409;28;20023;-94
2021/06/17 02:52:07;;;;;;;0.98;0.45;;;15.80;99.90;;;;;;4962657;28;20124;-93
2021/06/17 02:54:33;;;;;;;1.75;0.50;;;15.80;99.90;;;;;;4962162;28;20023;-93
2021/06/17 02:57:02;;;;;;;2.97;0.60;;;15.80;99.90;;;;;;4959729;28;20124;-93
2021/06/17 02:59:56;;;;;;;1.70;0.65;;;15.80;99.90;;;;;;4961710;28;20022;-93
2021/06/17 03:02:37;;;;;;;2.92;0.93;;;15.80;99.90;;;;;;4962844;28;20050;-93
2021/06/17 03:05:06;;;;;;;;;;;15.80;99.90;;;;;;4962287;28;20019;-93
2021/06/17 03:07:37;;;;;;;1.80;0.60;;;15.80;99.90;;;;;;4961691;28;19957;-93
2021/06/17 03:10:13;;;;;;;3.00;0.70;;;15.80;99.90;;;;;;4960590;28;20089;-93
2021/06/17 03:12:43;;;;;;;2.08;0.77;;;15.80;99.90;;;;;;4960219;28;20481;-92
2021/06/17 03:15:10;;;;;;;0.75;0.50;;;15.80;99.90;;;;;;4965596;28;20026;-92
2021/06/17 03:17:40;;;;;;;3.97;0.77;;;15.90;99.90;;;;;;4964719;28;20027;-93
2021/06/17 03:20:08;;;;;;;3.83;1.00;;;15.90;99.90;;;;;;4965152;28;20023;-93
2021/06/17 03:22:39;;;;;;;3.72;1.27;;;15.90;99.90;;;;;;4964944;28;20445;-92
2021/06/17 03:25:08;;;;;;;3.13;1.27;;;15.90;99.90;;;;;;4965581;28;20029;-93
2021/06/17 03:27:37;;;;;;;3.33;1.08;;;15.90;99.90;;;;;;4965355;28;20038;-93
2021/06/17 03:30:05;;;;;;;2.80;1.20;;;15.80;99.90;;;;;;4965206;28;20070;-93
2021/06/17 03:32:35;;;;;;;4.45;1.38;;;15.80;99.90;;;;;;4964640;28;20022;-93
2021/06/17 03:35:01;;;;;;;2.95;1.30;;;15.70;99.90;;;;;;4971065;28;20041;-93
2021/06/17 03:37:28;;;;;;;3.25;1.40;;;15.70;99.90;;;;;;4980839;28;20047;-93
2021/06/17 03:39:56;;;;;;;3.85;1.40;;;15.70;99.90;;;;;;4981330;28;20057;-93
2021/06/17 03:42:26;;;;;;;8.57;1.58;;;15.70;99.90;;;;;;4979865;28;20054;-91
2021/06/17 03:44:53;;;;;;;8.23;1.52;;;15.70;99.90;;;;;;4977079;28;20396;-91
2021/06/17 03:47:23;;;;;;;5.40;1.55;;;15.70;99.90;;;;;;4976236;28;20038;-91
2021/06/17 03:49:51;;;;;;;1.70;1.07;;;15.60;99.90;;;;;;4976154;28;20416;-91
2021/06/17 03:52:17;;;;;;;6.63;1.92;;;15.60;99.90;;;;;;4976734;28;20037;-92
2021/06/17 03:54:44;;;;;;;5.32;1.60;;;15.60;99.90;;;;;;4959688;28;20027;-91
2021/06/17 03:57:10;;;;;;;5.50;1.50;;;15.50;99.90;;;;;;4958581;28;20035;-91
2021/06/17 03:59:40;;;;;;;6.55;1.58;;;15.50;99.90;;;;;;4958511;28;20023;-91
2021/06/17 04:02:06;;;;;;;4.38;1.40;;;15.50;99.90;;;;;;4958337;28;20031;-91
2021/06/17 04:04:32;;;;;;;4.65;1.38;;;15.40;99.90;;;;;;4958472;28;20134;-91
2021/06/17 04:07:01;;;;;;;4.22;1.35;;;15.30;99.90;;;;;;4958457;28;20484;-90
2021/06/17 04:09:36;;;;;;;4.50;1.20;;;15.20;99.90;;;;;;4958128;28;20615;-91
2021/06/17 04:12:08;;;;;;;17.27;1.95;;;15.20;99.90;;;;;;4958333;28;20057;-90
2021/06/17 04:14:36;;;;;;;3.83;1.50;;;15.10;99.90;;;;;;4958186;28;20026;-92
2021/06/17 04:17:03;;;;;;;5.63;1.98;;;15.00;99.90;;;;;;4958357;28;20027;-90
2021/06/17 04:19:36;;;;;;;6.47;2.15;;;15.00;99.90;;;;;;4958112;28;20023;-91
2021/06/17 04:22:08;;;;;;;5.22;2.05;;;14.90;99.90;;;;;;4956894;28;20038;-90
2021/06/17 04:24:38;;;;;;;8.95;2.20;;;14.80;99.90;;;;;;4958294;28;20077;-91
2021/06/17 04:27:05;;;;;;;;;;;14.80;99.90;;;;;;4960209;28;20026;-92
2021/06/17 04:29:35;;;;;;;5.03;2.20;;;14.80;99.90;;;;;;4960228;28;20066;-92
2021/06/17 04:32:02;;;;;;;8.05;2.25;;;14.70;99.90;;;;;;4959108;28;20030;-91
2021/06/17 04:34:28;;;;;;;10.50;2.67;;;14.70;99.90;;;;;;4958790;28;20071;-91
2021/06/17 04:36:54;;;;;;;4.93;2.05;;;14.70;99.90;;;;;;4958524;28;20074;-91
2021/06/17 04:39:26;;;;;;;7.53;3.05;;;14.60;99.90;;;;;;4958869;28;20506;-90
2021/06/17 04:41:53;;;;;;;5.10;2.42;;;14.50;99.90;;;;;;4958675;28;20038;-91
2021/06/17 04:44:19;;;;;;;6.90;2.58;;;14.50;99.90;;;;;;4958588;28;20249;-91
2021/06/17 04:46:47;;;;;;;10.57;2.15;;;14.40;99.90;;;;;;4958558;28;20045;-90
2021/06/17 04:49:14;;;;;;;7.75;2.92;;;14.40;99.90;;;;;;4959109;28;20082;-91
2021/06/17 04:51:40;;;;;;;5.78;2.42;;;14.40;99.90;;;;;;4959187;28;20049;-92
2021/06/17 04:54:20;;;;;;;5.72;2.20;;;14.40;99.90;;;;;;4959438;28;20027;-91
2021/06/17 04:56:47;;;;;;;6.28;2.53;;;14.40;99.90;;;;;;4959565;28;20054;-91
2021/06/17 04:59:13;;;;;;;7.65;2.17;;;14.40;99.90;;;;;;4959216;28;20031;-92
2021/06/17 05:01:41;;;;;;;7.53;2.20;;;14.30;99.90;;;;;;4958913;28;20042;-91
2021/06/17 05:04:07;;;;;;;12.25;2.53;;;14.40;99.90;;;;;;4958801;28;20023;-92
2021/06/17 05:06:36;;;;;;;8.48;2.50;;;14.30;99.90;;;;;;4958783;28;20034;-91
2021/06/17 05:11:46;;;;;;;5.85;2.38;;;14.30;99.90;;;;;;4976139;28;20040;-92
2021/06/17 05:14:13;;;;;;;6.28;2.50;;;14.20;99.90;;;;;;4958399;28;20031;-92
2021/06/17 05:16:38;;;;;;;5.00;2.70;;;14.20;99.90;;;;;;4959130;28;20084;-91
2021/06/17 05:19:04;;;;;;;9.13;2.90;;;14.20;99.90;;;;;;4959029;28;20420;-91
2021/06/17 05:21:30;;;;;;;6.45;2.20;;;14.20;99.90;;;;;;4958340;28;20045;-91
2021/06/17 05:23:56;;;;;;;5.05;2.28;;;14.10;99.90;;;;;;4958264;28;20035;-91
2021/06/17 05:26:22;;;;;;;8.52;2.42;;;14.10;99.90;;;;;;4958122;28;20042;-92
2021/06/17 05:28:49;;;;;;;8.15;2.80;;;14.10;99.90;;;;;;4958188;28;20026;-90
2021/06/17 05:31:15;;;;;;;5.35;2.58;;;14.10;99.90;;;;;;4958300;28;20037;-92
2021/06/17 05:33:43;;;;;;;5.65;2.40;;;14.10;99.90;;;;;;4958118;28;20019;-91
2021/06/17 05:36:10;;;;;;;6.72;2.72;;;14.20;99.90;;;;;;4958226;28;20515;-90
2021/06/17 05:38:36;;;;;;;6.90;2.38;;;14.20;99.90;;;;;;4958011;28;20501;-90
2021/06/17 05:41:03;;;;;;;4.47;2.58;;;14.20;99.90;;;;;;4958313;28;20035;-90
2021/06/17 05:43:29;;;;;;;10.75;3.03;;;14.30;99.90;;;;;;4958177;28;20030;-91
2021/06/17 05:45:55;;;;;;;6.25;3.15;;;14.30;99.90;;;;;;4958236;28;20029;-91
2021/06/17 05:48:21;;;;;;;11.23;2.30;;;14.30;99.90;;;;;;4958644;28;20039;-91
2021/06/17 05:50:47;;;;;;;4.68;2.35;;;14.30;99.90;;;;;;4958589;28;20091;-90
2021/06/17 05:53:13;;;;;;;6.75;2.58;;;14.30;99.90;;;;;;4959051;28;20034;-91
2021/06/17 05:55:39;;;;;;;11.13;2.80;;;14.30;99.90;;;;;;4958760;28;20031;-91
2021/06/17 05:58:05;;;;;;;7.30;2.13;;;14.30;99.90;;;;;;4958673;28;20461;-91
2021/06/17 06:00:31;;;;;;;5.53;2.28;;;14.30;99.90;;;;;;4959221;28;20070;-91
2021/06/17 06:02:57;;;;;;;8.05;2.55;;;14.30;99.90;;;;;;4958993;28;20062;-91
2021/06/17 06:05:22;;;;;;;6.47;2.17;;;14.30;99.90;;;;;;4958093;28;20027;-91
2021/06/17 06:07:56;;;;;;;6.43;2.20;;;14.30;99.90;;;;;;4958313;28;20034;-91
2021/06/17 06:10:22;;;;;;;5.35;2.30;;;14.30;99.90;;;;;;4957597;28;20029;-90
2021/06/17 06:12:47;;;;;;;14.40;3.20;;;14.30;99.90;;;;;;4957620;28;20027;-90
2021/06/17 06:15:13;;;;;;;6.13;2.33;;;14.40;99.90;;;;;;4958657;28;20062;-91
2021/06/17 06:17:39;;;;;;;9.00;2.40;;;14.40;99.90;;;;;;4958631;28;20027;-91
2021/06/17 06:20:05;;;;;;;6.95;2.17;;;14.40;99.90;;;;;;4960340;28;20062;-91
2021/06/17 06:22:31;;;;;;;9.10;2.63;;;14.50;99.90;;;;;;4962207;28;20066;-91
2021/06/17 06:24:57;;;;;;;4.68;2.10;;;14.50;99.90;;;;;;4959917;28;20051;-92
2021/06/17 06:27:22;;;;;;;7.30;2.30;;;14.50;99.90;;;;;;4958977;28;20023;-91
2021/06/17 06:29:48;;;;;;;7.78;2.13;;;14.40;99.90;;;;;;4958327;28;20073;-90
2021/06/17 06:32:14;;;;;;;5.75;2.28;;;14.40;99.90;;;;;;4958285;28;20027;-91
2021/06/17 06:34:40;;;;;;;6.97;2.35;;;14.50;99.90;;;;;;4958275;28;20033;-93
2021/06/17 06:37:05;;;;;;;10.55;2.75;;;14.50;99.90;;;;;;4990223;28;20035;-91
2021/06/17 06:39:32;;;;;;;6.18;2.20;;;14.50;99.90;;;;;;4958649;28;20484;-91
2021/06/17 06:41:58;;;;;;;6.38;2.30;;;14.60;99.90;;;;;;4958544;28;20035;-91
2021/06/17 06:44:27;;;;;;;7.95;2.10;;;14.60;99.90;;;;;;4958154;28;20029;-91
2021/06/17 06:46:55;;;;;;;10.65;2.40;;;14.60;99.90;;;;;;4957852;28;20031;-91
2021/06/17 06:49:20;;;;;;;4.55;2.13;;;14.70;99.90;;;;;;4961146;28;20034;-91
2021/06/17 06:51:47;;;;;;;19.38;8.10;;;14.70;99.90;;;;;;4962147;28;20030;-94
2021/06/17 06:54:18;;;;;;;14.48;5.25;;;14.70;99.90;;;;;;4962782;28;20038;-92
2021/06/17 06:56:46;;;;;;;8.63;2.78;;;14.80;99.90;;;;;;4962326;28;20026;-93
2021/06/17 06:59:12;;;;;;;6.30;2.45;;;14.80;99.90;;;;;;4962805;28;20047;-93
2021/06/17 07:01:37;;;;;;;4.32;2.22;;;14.80;99.90;;;;;;4962165;28;20058;-93
2021/06/17 07:04:04;;;;;;;4.97;2.90;;;14.80;99.90;;;;;;4962910;28;20018;-90
2021/06/17 07:06:30;;;;;;;12.60;3.83;;;14.80;99.90;;;;;;4962485;28;20035;-90
2021/06/17 07:08:55;;;;;;;10.30;2.70;;;14.80;99.90;;;;;;4962608;28;20062;-90
2021/06/17 07:11:21;;;;;;;9.88;3.08;;;14.80;99.90;;;;;;4963261;28;20038;-90
2021/06/17 07:13:47;;;;;;;7.03;2.63;;;14.80;99.90;;;;;;4963282;28;20034;-90
2021/06/17 07:16:13;;;;;;;8.82;2.70;;;14.90;99.90;;;;;;4962655;28;20026;-90
2021/06/17 07:18:38;;;;;;;6.07;3.08;;;14.90;99.90;;;;;;4963369;28;20031;-91
2021/06/17 07:21:04;;;;;;;7.68;2.30;;;15.00;99.90;;;;;;4962276;28;20481;-91
2021/06/17 07:23:33;;;;;;;10.32;2.33;;;15.10;99.90;;;;;;4961677;28;20062;-91
2021/06/17 07:25:59;;;;;;;7.10;2.08;;;15.10;99.90;;;;;;4962166;28;20122;-91
2021/06/17 07:28:25;;;;;;;8.30;2.42;;;15.10;99.90;;;;;;4964563;28;20023;-91
2021/06/17 07:30:50;;;;;;;6.43;1.85;;;15.20;99.90;;;;;;4966088;28;20058;-93
2021/06/17 07:33:16;;;;;;;7.63;2.00;;;15.20;99.90;;;;;;4964762;28;20027;-92
2021/06/17 07:35:42;;;;;;;8.00;1.85;;;15.30;99.90;;;;;;4962387;28;20548;-91
2021/06/17 07:38:08;;;;;;;9.70;2.03;;;15.30;99.90;;;;;;4984182;28;20139;-92
2021/06/17 07:40:34;;;;;;;11.93;1.80;;;15.40;99.90;;;;;;4962528;28;20050;-93
2021/06/17 07:43:00;;;;;;;6.80;1.58;;;15.50;99.90;;;;;;4963270;28;20035;-92
2021/06/17 07:45:30;;;;;;;4.18;2.10;;;15.60;99.90;;;;;;4961946;28;20050;-93
2021/06/17 07:47:56;;;;;;;5.93;1.83;;;15.70;99.90;;;;;;4962824;28;20050;-94
2021/06/17 07:50:22;;;;;;;4.18;1.88;;;15.70;99.90;;;;;;4965153;28;20038;-92
2021/06/17 07:52:47;;;;;;;5.88;1.63;;;15.80;99.90;;;;;;4955573;28;20027;-92
2021/06/17 07:55:13;;;;;;;6.47;1.75;;;15.80;99.90;;;;;;4964043;28;20102;-92
2021/06/17 07:57:39;;;;;;;8.60;2.20;;;15.80;99.90;;;;;;4963875;28;20015;-93
2021/06/17 08:00:07;;;;;;;4.80;1.45;;;15.90;99.90;;;;;;4963199;28;20496;-93
2021/06/17 08:02:33;;;;;;;7.50;2.22;;;16.00;99.90;;;;;;4965202;28;20038;-94
2021/06/17 08:04:59;;;;;;;7.05;1.95;;;16.00;99.90;;;;;;4965475;28;20022;-93
2021/06/17 08:07:24;;;;;;;10.43;2.22;;;16.10;99.90;;;;;;4962354;28;20574;-93
2021/06/17 08:09:51;;;;;;;6.40;1.70;;;16.10;99.90;;;;;;4960259;28;20074;-92
2021/06/17 08:12:17;;;;;;;3.80;1.20;;;16.20;99.90;;;;;;4962469;28;20502;-92
2021/06/17 08:14:43;;;;;;;6.00;1.50;;;16.20;99.90;;;;;;4962822;28;20086;-93
2021/06/17 08:17:09;;;;;;;3.25;1.48;;;16.20;99.90;;;;;;4978451;28;20456;-92
2021/06/17 08:19:35;;;;;;;4.00;1.50;;;16.20;99.90;;;;;;4960329;28;20066;-92
2021/06/17 08:22:06;;;;;;;3.47;1.45;;;16.30;99.90;;;;;;4960707;28;20131;-91
2021/06/17 08:24:37;;;;;;;6.78;1.80;;;16.30;99.90;;;;;;4979433;28;20015;-93
2021/06/17 08:27:04;;;;;;;7.55;1.70;;;16.30;99.90;;;;;;4960689;28;20034;-94
2021/06/17 08:29:30;;;;;;;9.35;1.92;;;16.40;99.90;;;;;;4976922;28;20030;-93
2021/06/17 08:31:55;;;;;;;5.43;1.42;;;16.40;99.90;;;;;;4961665;28;20385;-92
2021/06/17 08:34:24;;;;;;;5.07;1.63;;;16.40;99.90;;;;;;4963092;28;20023;-93
2021/06/17 08:36:54;;;;;;;4.63;1.48;;;16.50;99.90;;;;;;4966205;28;20034;-92
2021/06/17 08:39:24;;;;;;;6.82;1.48;;;16.60;99.90;;;;;;4966419;28;20038;-93
2021/06/17 08:41:50;;;;;;;8.38;1.52;;;16.70;99.90;;;;;;4971651;28;20077;-93
2021/06/17 08:44:16;;;;;;;3.78;1.30;;;16.80;99.90;;;;;;4986183;28;20031;-93
2021/06/17 08:46:42;;;;;;;6.40;1.40;;;16.90;99.90;;;;;;4976640;28;20061;-93
2021/06/17 08:49:09;;;;;;;7.05;1.60;;;16.90;99.90;;;;;;4973768;28;20392;-94
2021/06/17 08:51:35;;;;;;;4.70;1.40;;;17.00;99.90;;;;;;4963497;28;20035;-94
2021/06/17 08:54:01;;;;;;;5.70;1.85;;;17.00;99.90;;;;;;4964166;28;20023;-94
2021/06/17 08:56:27;;;;;;;5.25;1.30;;;17.00;99.90;;;;;;4961312;28;20098;-94
2021/06/17 08:59:05;;;;;;;7.18;1.95;;;17.00;99.90;;;;;;4961284;28;20028;-92
2021/06/17 09:01:31;;;;;;;5.60;1.92;;;17.10;99.90;;;;;;4950068;28;20031;-92
2021/06/17 09:03:58;;;;;;;6.35;1.80;;;17.10;99.90;;;;;;4964709;28;20122;-93
2021/06/17 09:06:24;;;;;;;4.78;1.77;;;17.20;99.90;;;;;;4963420;28;20026;-94
2021/06/17 09:08:58;;;;;;;7.13;1.80;;;17.30;99.90;;;;;;4964636;28;20120;-93
2021/06/17 09:11:26;;;;;;;8.25;1.77;;;17.30;99.90;;;;;;4962859;28;20043;-92
2021/06/17 09:13:51;;;;;;;11.10;1.85;;;17.40;99.90;;;;;;4965843;28;20045;-93
2021/06/17 09:16:28;;;;;;;6.80;1.92;;;17.50;99.90;;;;;;4966354;28;20543;-92
2021/06/17 09:18:54;;;;;;;9.55;2.10;;;17.50;99.90;;;;;;4955261;28;20062;-92
2021/06/17 09:21:20;;;;;;;4.50;1.80;;;17.80;99.90;;;;;;4962045;28;20039;-93
2021/06/17 09:23:48;;;;;;;5.13;1.42;;;18.00;99.90;;;;;;4963400;28;20022;-93
2021/06/17 09:26:20;;;;;;;4.85;2.00;;;18.20;99.90;;;;;;4966176;28;20026;-93
2021/06/17 09:29:03;;;;;;;4.95;1.83;;;18.40;99.90;;;;;;4964599;28;20540;-92
2021/06/17 09:31:38;;;;;;;5.32;1.52;;;18.50;99.90;;;;;;4954205;28;20058;-92
2021/06/17 09:34:10;;;;;;;9.27;1.52;;;18.50;99.30;;;;;;4945859;29;20470;-92
2021/06/17 09:36:38;;;;;;;6.20;1.63;;;18.50;99.00;;;;;;4948631;29;20071;-92
2021/06/17 09:39:11;;;;;;;4.32;1.80;;;18.50;98.70;;;;;;4952648;28;20035;-92
2021/06/17 09:41:42;;;;;;;7.25;1.90;;;18.60;98.60;;;;;;4976507;28;20130;-93
2021/06/17 09:44:29;;;;;;;6.18;1.70;;;18.70;98.40;;;;;;4962379;28;20396;-93
2021/06/17 09:47:10;;;;;;;4.32;1.50;;;18.80;98.10;;;;;;4979946;28;20030;-93
2021/06/17 09:49:36;;;;;;;;;;;19.10;97.50;;;;;;4965962;28;20057;-93
2021/06/17 09:52:06;;;;;;;5.22;1.95;;;19.30;97.00;;;;;;4964163;28;19914;-91
2021/06/17 09:54:32;;;;;;;7.20;2.05;;;19.50;96.40;;;;;;4963538;28;20023;-93
2021/06/17 09:57:01;;;;;;;6.47;1.75;;;19.70;95.70;;;;;;4960874;28;20031;-91
2021/06/17 09:59:44;;;;;;;6.63;2.53;;;19.80;95.30;;;;;;4959962;28;20085;-91
2021/06/17 10:02:12;;;;;;;5.07;1.70;;;19.90;94.60;;;;;;4958651;28;20039;-92
2021/06/17 10:04:38;;;;;;;5.53;1.75;;;20.00;94.30;;;;;;4960224;28;20025;-92
2021/06/17 10:07:06;;;;;;;5.55;1.80;;;20.00;93.70;;;;;;4963085;28;20034;-91
2021/06/17 10:09:33;;;;;;;4.30;1.67;;;20.00;93.00;;;;;;4966425;28;20019;-91
2021/06/17 10:12:00;;;;;;;6.85;1.70;;;20.10;93.20;;;;;;4962677;28;20126;-93
2021/06/17 10:14:30;;;;;;;8.20;1.67;;;20.20;92.90;;;;;;4964687;28;20083;-95
2021/06/17 10:16:58;;;;;;;7.63;1.73;;;20.10;92.30;;;;;;4963911;28;20039;-93
2021/06/17 10:19:24;;;;;;;5.28;1.60;;;20.20;91.90;;;;;;4959365;28;20029;-91
2021/06/17 10:21:50;;;;;;;4.07;1.63;;;20.20;91.70;;;;;;4960282;28;20129;-91
2021/06/17 10:24:25;;;;;;;5.05;1.42;;;20.30;91.30;;;;;;4981038;28;20120;-91
2021/06/17 10:26:53;;;;;;;10.40;1.67;;;20.40;91.10;;;;;;4968636;28;20453;-90
2021/06/17 10:29:23;;;;;;;4.70;1.60;;;20.50;90.80;;;;;;4969678;28;20015;-90
2021/06/17 10:31:53;;;;;;;6.55;1.73;;;20.70;90.50;;;;;;4968879;28;20035;-90
2021/06/17 10:34:31;;;;;;;5.20;1.50;;;20.70;90.00;;;;;;4967431;28;20117;-91
2021/06/17 10:37:14;;;;;;;6.20;1.52;;;20.80;88.80;;;;;;4965536;28;20054;-91
2021/06/17 10:40:06;;;;;;;7.45;1.58;;;20.70;87.80;;;;;;4961822;28;20042;-91
2021/06/17 10:42:39;;;;;;;5.57;1.90;;;20.70;87.50;;;;;;4978943;28;20053;-91
2021/06/17 10:45:11;;;;;;;8.68;2.05;;;20.70;87.20;;;;;;4961691;28;20015;-90
2021/06/17 10:47:41;;;;;;;6.05;1.63;;;20.70;87.20;;;;;;4961954;28;20034;-90
2021/06/17 10:50:10;;;;;;;7.68;1.90;;;20.80;87.40;;;;;;4962589;28;20027;-90
2021/06/17 10:52:38;;;;;;;6.40;1.90;;;21.00;86.60;;;;;;4991859;28;20178;-89
2021/06/17 10:55:08;;;;;;;5.05;1.50;;;21.00;85.80;;;;;;4961978;28;20266;-90
2021/06/17 10:57:43;;;;;;;7.82;1.38;;;21.20;84.50;;;;;;4962754;28;20019;-90
2021/06/17 11:00:30;;;;;;;6.28;1.58;;;21.30;83.70;;;;;;4964829;28;20034;-90
2021/06/17 11:03:05;;;;;;;7.93;1.40;;;21.50;83.00;;;;;;4961729;28;20062;-91
2021/06/17 11:05:31;;;;;;;5.28;1.40;;;21.60;82.30;;;;;;4961739;28;20073;-91
2021/06/17 11:08:19;;;;;;;5.95;1.48;;;21.70;81.10;;;;;;4962446;28;20133;-89
2021/06/17 11:11:03;;;;;;;5.18;1.73;;;21.80;79.70;;;;;;4988681;28;20031;-91
2021/06/17 11:13:51;;;;;;;4.43;1.70;;;21.90;79.40;;;;;;4965656;28;20039;-89
2021/06/17 11:16:16;;;;;;;7.80;1.80;;;21.90;78.60;;;;;;4964566;28;20034;-90
2021/06/17 11:18:49;;;;;;;5.55;1.77;;;21.90;78.30;;;;;;4996872;28;20031;-89
2021/06/17 11:21:25;;;;;;;8.40;1.80;;;21.90;77.70;;;;;;4965068;28;20043;-91
2021/06/17 11:24:25;;;;;;;5.93;1.65;;;21.90;76.80;;;;;;4967988;28;20081;-91
2021/06/17 11:26:52;;;;;;;;;;;21.90;76.40;;;;;;4964686;28;20054;-92
2021/06/17 11:29:42;;;;;;;5.47;1.60;;;22.00;76.50;;;;;;4965331;28;19906;-90
2021/06/17 11:32:30;;;;;;;7.65;2.03;;;22.10;76.50;;;;;;4982453;28;20035;-90
2021/06/17 11:34:56;;;;;;;3.78;1.35;;;22.10;76.20;;;;;;4966998;28;20019;-91
2021/06/17 11:37:27;;;;;;;3.70;1.40;;;22.30;76.30;;;;;;4967538;28;20048;-91
2021/06/17 11:39:52;;;;;;;5.28;2.22;;;22.30;75.90;;;;;;4968546;28;20089;-93
2021/06/17 11:42:22;;;;;;;7.78;1.67;;;22.30;75.50;;;;;;4968546;28;20035;-94
2021/06/17 11:44:58;;;;;;;4.05;1.85;;;22.20;75.10;;;;;;4968861;28;20065;-95
2021/06/17 11:47:27;;;;;;;5.38;1.80;;;22.20;74.70;;;;;;4969125;28;20042;-93
2021/06/17 11:50:05;;;;;;;7.00;1.85;;;22.20;74.70;;;;;;4959530;28;20031;-93
2021/06/17 11:52:37;;;;;;;7.20;1.73;;;22.30;74.50;;;;;;4981542;28;20027;-93
2021/06/17 11:55:04;;;;;;;4.68;1.20;;;22.30;74.00;;;;;;4966919;28;20165;-93
2021/06/17 11:57:30;;;;;;;5.90;1.70;;;22.40;73.50;;;;;;4965024;28;20539;-93
2021/06/17 11:59:58;;;;;;;5.68;2.08;;;22.40;73.00;;;;;;4966391;28;20030;-92
2021/06/17 12:02:25;;;;;;;4.10;1.67;;;22.50;72.60;;;;;;4967252;28;20420;-93
2021/06/17 12:05:07;;;;;;;7.13;1.63;;;22.50;72.00;;;;;;4966574;28;20022;-92
2021/06/17 12:07:39;;;;;;;6.15;2.00;;;22.50;72.20;;;;;;4962395;28;20035;-95
2021/06/17 12:10:05;;;;;;;8.13;1.83;;;22.40;72.30;;;;;;4965062;28;20030;-95
2021/06/17 12:12:31;;;;;;;4.75;1.60;;;22.50;72.30;;;;;;4965286;28;20026;-94
2021/06/17 12:14:57;;;;;;;9.05;1.90;;;22.40;71.60;;;;;;4965304;28;20019;-94
2021/06/17 12:17:36;;;;;;;7.97;1.70;;;22.40;71.60;;;;;;4965977;28;20029;-95
2021/06/17 12:20:14;;;;;;;6.82;1.75;;;22.30;72.00;;;;;;4965156;28;20061;-93
2021/06/17 12:22:46;;;;;;;5.90;1.60;;;22.30;71.80;;;;;;4963843;28;20046;-92
2021/06/17 12:25:15;;;;;;;9.15;2.15;;;22.30;71.50;;;;;;4964829;28;20023;-93
2021/06/17 12:27:42;;;;;;;4.80;1.50;;;22.40;71.60;;;;;;4964586;28;20029;-94
2021/06/17 12:30:30;;;;;;;6.88;1.70;;;22.50;71.70;;;;;;4965045;28;20034;-94
2021/06/17 12:33:08;;;;;;;7.50;1.80;;;22.50;71.20;;;;;;4997462;28;20035;-94
2021/06/17 12:35:47;;;;;;;8.68;1.95;;;22.50;71.20;;;;;;4964120;28;20027;-93
2021/06/17 12:38:22;;;;;;;6.90;1.70;;;22.50;71.50;;;;;;4969415;28;20054;-93
2021/06/17 12:40:48;;;;;;;7.28;1.90;;;22.50;71.10;;;;;;4962146;28;20035;-93
2021/06/17 12:43:24;;;;;;;6.32;1.40;;;22.50;71.00;;;;;;4970106;28;20057;-92
2021/06/17 12:46:04;;;;;;;5.30;2.17;;;22.70;71.10;;;;;;4969486;28;20071;-92
2021/06/17 12:54:24;;;;;;;9.00;2.00;;;23.10;69.00;;;;;;4981870;28;20045;-93
2021/06/17 12:56:52;;;;;;;7.85;2.28;;;23.20;68.60;;;;;;4995371;28;20014;-93
2021/06/17 12:59:38;;;;;;;8.00;1.52;;;23.20;68.50;;;;;;4969214;28;20061;-92
2021/06/17 13:02:04;;;;;;;5.70;2.10;;;23.30;67.60;;;;;;4965840;28;20031;-93
2021/06/17 13:04:30;;;;;;;6.70;1.70;;;23.30;67.60;;;;;;4963816;28;20042;-94
2021/06/17 13:06:56;;;;;;;6.93;1.92;;;23.30;67.30;;;;;;4964896;28;20078;-94